JH4XSY-13 Weather Reports


Display with metric or nautical units.
time (UTC)temp
F
wind
direction
speed
MPH
gust
MPH
rain 1hr
in
rain 24hr
in
rain mn
in
humidity
%
barometer
mb
20191117071507 69 0.0 0.0 0.00 0.00 0.00 28 1002.5
20191117064505 70 0.0 0.0 0.00 0.00 0.00 27 1002.1
20191117061505 69 0.0 0.0 0.00 0.00 0.00 28 1001.4
20191117054508 69 0.0 0.0 0.00 0.00 0.00 29 1000.8
20191117051506 71 0.0 0.0 0.00 0.00 0.00 29 1001.2
20191117044505 71 0.0 0.0 0.00 0.00 0.00 30 1000.8
20191117041504 71 0.0 0.0 0.00 0.00 0.00 31 1000.3
20191117034508 69 0.0 0.0 0.00 0.00 0.00 32 999.9
20191117031507 68 0.0 0.0 0.00 0.00 0.00 34 999.7
20191117024504 67 0.0 0.0 0.00 0.00 0.00 35 999.9
20191117021505 64 0.0 0.0 0.00 0.00 0.00 33 1000.3
20191117014506 64 0.0 0.0 0.00 0.00 0.00 34 1000.7
20191117011509 63 0.0 0.0 0.00 0.00 0.00 34 1000.7
20191117004507 62 0.0 0.0 0.00 0.00 0.00 37 1000.6
20191117001504 60 0.0 0.0 0.00 0.00 0.00 45 1000.7
20191116234507 57 0.0 0.0 0.00 0.00 0.00 54 1000.8
20191116231505 56 0.0 0.0 0.00 0.00 0.00 58 1000.3
20191116224507 55 0.0 0.0 0.00 0.00 0.00 60 999.9
20191116221504 55 0.0 0.0 0.00 0.00 0.00 60 999.6
20191116214508 55 0.0 0.0 0.00 0.00 0.00 61 999.5
20191116211507 55 0.0 0.0 0.00 0.00 0.00 62 999.5
20191116204508 55 0.0 0.0 0.00 0.00 0.00 66 999.1
20191116201508 55 0.0 0.0 0.00 0.00 0.00 66 998.4
20191116194508 55 0.0 0.0 0.00 0.00 0.00 66 998.0
20191116191508 55 0.0 0.0 0.00 0.00 0.00 66 997.8
20191116184508 55 0.0 0.0 0.00 0.00 0.00 67 998.1
20191116181505 56 0.0 0.0 0.00 0.00 0.00 67 998.2
20191116174505 56 0.0 0.0 0.00 0.00 0.00 68 998.2
20191116171505 56 0.0 0.0 0.00 0.00 0.00 70 998.1
20191116164506 56 0.0 0.0 0.00 0.00 0.00 70 997.9
20191116161508 56 0.0 0.0 0.00 0.00 0.00 71 997.7
20191116154506 57 0.0 0.0 0.00 0.00 0.00 72 997.7
20191116151505 58 0.0 0.0 0.00 0.00 0.00 71 997.6
20191116144507 59 0.0 0.0 0.00 0.00 0.00 68 997.6
20191116141504 60 0.0 0.0 0.00 0.00 0.00 65 997.1
20191116134508 61 0.0 0.0 0.00 0.00 0.00 61 997.2
20191116131506 62 0.0 0.0 0.00 0.00 0.00 57 997.2
20191116124507 63 0.0 0.0 0.00 0.00 0.00 53 997.0
20191116121509 64 0.0 0.0 0.00 0.00 0.00 49 997.0
20191116114508 64 0.0 0.0 0.00 0.00 0.00 50 996.8
20191116111505 64 0.0 0.0 0.00 0.00 0.00 53 996.8
20191116104508 64 0.0 0.0 0.00 0.00 0.00 53 996.8
20191116101508 66 0.0 0.0 0.00 0.00 0.00 49 996.9
20191116094505 67 0.0 0.0 0.00 0.00 0.00 43 997.0
20191116091512 69 0.0 0.0 0.00 0.00 0.00 32 997.1
20191116084505 69 0.0 0.0 0.00 0.00 0.00 30 996.9
20191116081506 69 0.0 0.0 0.00 0.00 0.00 28 996.5
20191116074504 70 0.0 0.0 0.00 0.00 0.00 26 996.3